Berthoud, Colorado
Current Conditions -  °F | °C
As of 6:35 AM on Tuesday 21 Oct 2014 (Local Time) from KFNL Reporting Station
Clear Clear  
Wind Chill: 46°   Ceiling: Unl
Heat Index: 46°   Visibility: 10mi
Dew Point: 37°   Wind: 0mph
Humidity: 71%   Direction: NA
Pressure: 30.03"   Gusts: NA
Location:  40.31°N, 105.08°W
Report Text: KFNL 211235Z AUTO 00000KT 10SM CLR 08/03 A3003 RMK AO1
Loading
Personal Weather Stations






























Interactive Weather Map
Tropical Storm Tracking
New forecast layout! Learn more

10-Day Weather Forecast

Advertisements
Track Severe Weather on mobile